sensor_id;sensor_type;location;lat;lon;timestamp;P1;durP1;ratioP1;P2;durP2;ratioP2
2474;SDS011;1248;48.694;10.160;2023-04-24T00:00:55;2.03;;;1.63;;
2474;SDS011;1248;48.694;10.160;2023-04-24T00:03:22;2.28;;;1.40;;
2474;SDS011;1248;48.694;10.160;2023-04-24T00:05:50;1.93;;;1.43;;
2474;SDS011;1248;48.694;10.160;2023-04-24T00:08:17;2.13;;;1.60;;
2474;SDS011;1248;48.694;10.160;2023-04-24T00:10:45;2.05;;;1.40;;
2474;SDS011;1248;48.694;10.160;2023-04-24T00:13:12;2.57;;;2.37;;
2474;SDS011;1248;48.694;10.160;2023-04-24T00:15:39;2.00;;;1.70;;
2474;SDS011;1248;48.694;10.160;2023-04-24T00:18:07;1.83;;;1.47;;
2474;SDS011;1248;48.694;10.160;2023-04-24T00:20:34;3.60;;;1.80;;
2474;SDS011;1248;48.694;10.160;2023-04-24T00:23:02;1.70;;;1.60;;
2474;SDS011;1248;48.694;10.160;2023-04-24T00:25:29;2.07;;;1.60;;
2474;SDS011;1248;48.694;10.160;2023-04-24T00:27:56;2.13;;;1.70;;
2474;SDS011;1248;48.694;10.160;2023-04-24T00:30:23;1.52;;;1.27;;
2474;SDS011;1248;48.694;10.160;2023-04-24T00:32:50;1.50;;;1.40;;
2474;SDS011;1248;48.694;10.160;2023-04-24T00:35:18;3.90;;;1.65;;
2474;SDS011;1248;48.694;10.160;2023-04-24T00:37:46;2.80;;;2.60;;
2474;SDS011;1248;48.694;10.160;2023-04-24T00:40:13;3.73;;;1.70;;
2474;SDS011;1248;48.694;10.160;2023-04-24T00:42:40;1.70;;;1.60;;
2474;SDS011;1248;48.694;10.160;2023-04-24T00:45:07;3.57;;;2.67;;
2474;SDS011;1248;48.694;10.160;2023-04-24T00:47:35;3.00;;;2.27;;
2474;SDS011;1248;48.694;10.160;2023-04-24T00:50:03;2.80;;;2.10;;
2474;SDS011;1248;48.694;10.160;2023-04-24T00:52:32;2.10;;;1.90;;
2474;SDS011;1248;48.694;10.160;2023-04-24T00:54:59;2.13;;;1.90;;
2474;SDS011;1248;48.694;10.160;2023-04-24T00:57:26;2.73;;;2.30;;
2474;SDS011;1248;48.694;10.160;2023-04-24T00:59:53;2.50;;;2.30;;
2474;SDS011;1248;48.694;10.160;2023-04-24T01:02:20;2.47;;;2.03;;
2474;SDS011;1248;48.694;10.160;2023-04-24T01:04:50;2.43;;;2.23;;
2474;SDS011;1248;48.694;10.160;2023-04-24T01:07:18;2.90;;;2.63;;
2474;SDS011;1248;48.694;10.160;2023-04-24T01:09:48;5.10;;;2.80;;
2474;SDS011;1248;48.694;10.160;2023-04-24T01:12:17;3.30;;;3.00;;
2474;SDS011;1248;48.694;10.160;2023-04-24T01:14:44;3.50;;;2.20;;
2474;SDS011;1248;48.694;10.160;2023-04-24T01:17:11;3.40;;;2.60;;
2474;SDS011;1248;48.694;10.160;2023-04-24T01:19:38;2.27;;;1.80;;
2474;SDS011;1248;48.694;10.160;2023-04-24T01:22:11;3.63;;;2.50;;
2474;SDS011;1248;48.694;10.160;2023-04-24T01:24:39;2.67;;;2.10;;
2474;SDS011;1248;48.694;10.160;2023-04-24T01:27:07;3.83;;;2.00;;
2474;SDS011;1248;48.694;10.160;2023-04-24T01:29:35;2.63;;;2.33;;
2474;SDS011;1248;48.694;10.160;2023-04-24T01:32:02;3.70;;;2.10;;
2474;SDS011;1248;48.694;10.160;2023-04-24T01:34:30;2.03;;;1.83;;
2474;SDS011;1248;48.694;10.160;2023-04-24T01:36:57;2.23;;;2.03;;
2474;SDS011;1248;48.694;10.160;2023-04-24T01:39:25;2.37;;;2.17;;
2474;SDS011;1248;48.694;10.160;2023-04-24T01:41:54;2.63;;;2.43;;
2474;SDS011;1248;48.694;10.160;2023-04-24T01:44:21;5.30;;;2.37;;
2474;SDS011;1248;48.694;10.160;2023-04-24T01:46:48;5.63;;;2.23;;
2474;SDS011;1248;48.694;10.160;2023-04-24T01:49:15;2.50;;;2.30;;
2474;SDS011;1248;48.694;10.160;2023-04-24T01:51:43;2.90;;;2.17;;
2474;SDS011;1248;48.694;10.160;2023-04-24T01:54:10;2.90;;;2.60;;
2474;SDS011;1248;48.694;10.160;2023-04-24T01:56:38;5.27;;;2.83;;
2474;SDS011;1248;48.694;10.160;2023-04-24T01:59:06;3.50;;;2.73;;
2474;SDS011;1248;48.694;10.160;2023-04-24T02:01:34;2.77;;;2.53;;
2474;SDS011;1248;48.694;10.160;2023-04-24T02:04:02;4.67;;;3.43;;
2474;SDS011;1248;48.694;10.160;2023-04-24T02:06:29;3.97;;;3.60;;
2474;SDS011;1248;48.694;10.160;2023-04-24T02:08:56;12.75;;;3.20;;
2474;SDS011;1248;48.694;10.160;2023-04-24T02:11:24;3.63;;;3.10;;
2474;SDS011;1248;48.694;10.160;2023-04-24T02:13:52;5.60;;;3.23;;
2474;SDS011;1248;48.694;10.160;2023-04-24T02:16:19;4.35;;;2.88;;
2474;SDS011;1248;48.694;10.160;2023-04-24T02:18:47;3.63;;;3.33;;
2474;SDS011;1248;48.694;10.160;2023-04-24T02:21:14;3.73;;;2.83;;
2474;SDS011;1248;48.694;10.160;2023-04-24T02:23:41;3.07;;;2.77;;
2474;SDS011;1248;48.694;10.160;2023-04-24T02:26:08;4.53;;;2.90;;
2474;SDS011;1248;48.694;10.160;2023-04-24T02:28:35;4.30;;;3.10;;
2474;SDS011;1248;48.694;10.160;2023-04-24T02:31:04;3.33;;;3.03;;
2474;SDS011;1248;48.694;10.160;2023-04-24T02:33:31;3.50;;;3.20;;
2474;SDS011;1248;48.694;10.160;2023-04-24T02:35:58;4.27;;;3.17;;
2474;SDS011;1248;48.694;10.160;2023-04-24T02:38:26;4.50;;;3.57;;
2474;SDS011;1248;48.694;10.160;2023-04-24T02:40:53;4.30;;;3.07;;
2474;SDS011;1248;48.694;10.160;2023-04-24T02:43:20;3.40;;;3.10;;
2474;SDS011;1248;48.694;10.160;2023-04-24T02:45:47;2.73;;;2.53;;
2474;SDS011;1248;48.694;10.160;2023-04-24T02:48:15;2.50;;;2.30;;
2474;SDS011;1248;48.694;10.160;2023-04-24T02:50:42;5.03;;;2.60;;
2474;SDS011;1248;48.694;10.160;2023-04-24T02:53:09;3.25;;;1.98;;
2474;SDS011;1248;48.694;10.160;2023-04-24T02:55:36;3.60;;;2.30;;
2474;SDS011;1248;48.694;10.160;2023-04-24T02:58:03;4.30;;;2.63;;
2474;SDS011;1248;48.694;10.160;2023-04-24T03:00:31;5.93;;;2.20;;
2474;SDS011;1248;48.694;10.160;2023-04-24T03:02:58;2.80;;;1.90;;
2474;SDS011;1248;48.694;10.160;2023-04-24T03:05:26;4.63;;;1.93;;
2474;SDS011;1248;48.694;10.160;2023-04-24T03:07:53;2.87;;;1.67;;
2474;SDS011;1248;48.694;10.160;2023-04-24T03:10:20;6.20;;;1.83;;
2474;SDS011;1248;48.694;10.160;2023-04-24T03:12:49;3.20;;;2.20;;
2474;SDS011;1248;48.694;10.160;2023-04-24T03:15:16;4.18;;;2.03;;
2474;SDS011;1248;48.694;10.160;2023-04-24T03:17:43;4.40;;;2.30;;
2474;SDS011;1248;48.694;10.160;2023-04-24T03:20:10;6.33;;;2.53;;
2474;SDS011;1248;48.694;10.160;2023-04-24T03:22:39;4.87;;;2.47;;
2474;SDS011;1248;48.694;10.160;2023-04-24T03:25:06;2.57;;;2.17;;
2474;SDS011;1248;48.694;10.160;2023-04-24T03:27:34;2.83;;;2.50;;
2474;SDS011;1248;48.694;10.160;2023-04-24T03:30:01;2.65;;;2.10;;
2474;SDS011;1248;48.694;10.160;2023-04-24T03:32:29;2.47;;;2.13;;
2474;SDS011;1248;48.694;10.160;2023-04-24T03:34:57;4.10;;;2.50;;
2474;SDS011;1248;48.694;10.160;2023-04-24T03:37:24;2.50;;;2.30;;
2474;SDS011;1248;48.694;10.160;2023-04-24T03:39:53;2.93;;;1.90;;
2474;SDS011;1248;48.694;10.160;2023-04-24T03:42:20;2.00;;;1.90;;
2474;SDS011;1248;48.694;10.160;2023-04-24T03:44:47;2.65;;;2.00;;
2474;SDS011;1248;48.694;10.160;2023-04-24T03:47:14;2.53;;;2.23;;
2474;SDS011;1248;48.694;10.160;2023-04-24T03:49:41;2.40;;;2.20;;
2474;SDS011;1248;48.694;10.160;2023-04-24T03:52:08;2.33;;;2.13;;
2474;SDS011;1248;48.694;10.160;2023-04-24T03:54:35;5.00;;;2.60;;
2474;SDS011;1248;48.694;10.160;2023-04-24T03:57:03;5.40;;;2.43;;
2474;SDS011;1248;48.694;10.160;2023-04-24T03:59:31;3.70;;;1.95;;
2474;SDS011;1248;48.694;10.160;2023-04-24T04:01:58;2.97;;;2.07;;
2474;SDS011;1248;48.694;10.160;2023-04-24T04:04:25;2.80;;;2.27;;
2474;SDS011;1248;48.694;10.160;2023-04-24T04:06:52;2.90;;;1.98;;
2474;SDS011;1248;48.694;10.160;2023-04-24T04:09:19;3.00;;;2.50;;
2474;SDS011;1248;48.694;10.160;2023-04-24T04:11:46;3.15;;;2.42;;
2474;SDS011;1248;48.694;10.160;2023-04-24T04:14:14;4.37;;;2.20;;
2474;SDS011;1248;48.694;10.160;2023-04-24T04:16:41;5.10;;;2.40;;
2474;SDS011;1248;48.694;10.160;2023-04-24T04:19:08;4.70;;;2.20;;
2474;SDS011;1248;48.694;10.160;2023-04-24T04:21:35;2.60;;;2.40;;
2474;SDS011;1248;48.694;10.160;2023-04-24T04:24:02;2.20;;;2.00;;
2474;SDS011;1248;48.694;10.160;2023-04-24T04:26:31;4.20;;;2.47;;
2474;SDS011;1248;48.694;10.160;2023-04-24T04:28:58;3.15;;;2.38;;
2474;SDS011;1248;48.694;10.160;2023-04-24T04:31:27;5.73;;;3.33;;
2474;SDS011;1248;48.694;10.160;2023-04-24T04:33:54;4.73;;;3.30;;
2474;SDS011;1248;48.694;10.160;2023-04-24T04:36:21;5.20;;;2.80;;
2474;SDS011;1248;48.694;10.160;2023-04-24T04:38:49;3.50;;;2.50;;
2474;SDS011;1248;48.694;10.160;2023-04-24T04:41:16;4.03;;;3.13;;
2474;SDS011;1248;48.694;10.160;2023-04-24T04:43:43;7.57;;;3.07;;
2474;SDS011;1248;48.694;10.160;2023-04-24T04:46:11;3.90;;;3.05;;
2474;SDS011;1248;48.694;10.160;2023-04-24T04:48:40;3.10;;;2.60;;
2474;SDS011;1248;48.694;10.160;2023-04-24T04:51:07;3.87;;;2.60;;
2474;SDS011;1248;48.694;10.160;2023-04-24T04:53:34;7.20;;;3.30;;
2474;SDS011;1248;48.694;10.160;2023-04-24T04:56:01;3.50;;;3.20;;
2474;SDS011;1248;48.694;10.160;2023-04-24T04:58:28;3.00;;;2.70;;
2474;SDS011;1248;48.694;10.160;2023-04-24T05:00:56;5.23;;;3.27;;
2474;SDS011;1248;48.694;10.160;2023-04-24T05:03:23;3.80;;;3.13;;
2474;SDS011;1248;48.694;10.160;2023-04-24T05:05:52;4.35;;;3.10;;
2474;SDS011;1248;48.694;10.160;2023-04-24T05:08:19;3.63;;;2.90;;
2474;SDS011;1248;48.694;10.160;2023-04-24T05:10:46;5.57;;;3.47;;
2474;SDS011;1248;48.694;10.160;2023-04-24T05:13:13;5.83;;;2.97;;
2474;SDS011;1248;48.694;10.160;2023-04-24T05:15:40;3.97;;;2.50;;
2474;SDS011;1248;48.694;10.160;2023-04-24T05:18:07;3.43;;;2.80;;
2474;SDS011;1248;48.694;10.160;2023-04-24T05:20:34;5.47;;;3.10;;
2474;SDS011;1248;48.694;10.160;2023-04-24T05:23:02;3.30;;;2.70;;
2474;SDS011;1248;48.694;10.160;2023-04-24T05:25:29;2.93;;;2.60;;
2474;SDS011;1248;48.694;10.160;2023-04-24T05:28:00;3.30;;;2.90;;
2474;SDS011;1248;48.694;10.160;2023-04-24T05:30:27;4.73;;;2.83;;
2474;SDS011;1248;48.694;10.160;2023-04-24T05:32:54;3.03;;;2.33;;
2474;SDS011;1248;48.694;10.160;2023-04-24T05:35:21;4.40;;;2.87;;
2474;SDS011;1248;48.694;10.160;2023-04-24T05:37:48;3.70;;;2.43;;
2474;SDS011;1248;48.694;10.160;2023-04-24T05:40:17;8.38;;;3.47;;
2474;SDS011;1248;48.694;10.160;2023-04-24T05:42:44;5.17;;;4.03;;
2474;SDS011;1248;48.694;10.160;2023-04-24T05:45:11;4.60;;;3.53;;
2474;SDS011;1248;48.694;10.160;2023-04-24T05:47:42;3.17;;;2.90;;
2474;SDS011;1248;48.694;10.160;2023-04-24T05:50:09;4.40;;;2.93;;
2474;SDS011;1248;48.694;10.160;2023-04-24T05:52:36;4.67;;;3.33;;
2474;SDS011;1248;48.694;10.160;2023-04-24T05:55:04;5.53;;;3.40;;
2474;SDS011;1248;48.694;10.160;2023-04-24T05:57:33;2.63;;;2.43;;
2474;SDS011;1248;48.694;10.160;2023-04-24T06:00:00;3.77;;;2.50;;
2474;SDS011;1248;48.694;10.160;2023-04-24T06:02:27;7.55;;;1.92;;
2474;SDS011;1248;48.694;10.160;2023-04-24T06:04:57;3.73;;;2.10;;
2474;SDS011;1248;48.694;10.160;2023-04-24T06:07:25;2.30;;;2.10;;
2474;SDS011;1248;48.694;10.160;2023-04-24T06:09:52;3.40;;;2.10;;
2474;SDS011;1248;48.694;10.160;2023-04-24T06:12:20;3.97;;;3.67;;
2474;SDS011;1248;48.694;10.160;2023-04-24T06:14:48;0.90;;;0.80;;
2474;SDS011;1248;48.694;10.160;2023-04-24T06:17:15;0.88;;;0.80;;
2474;SDS011;1248;48.694;10.160;2023-04-24T06:19:43;0.90;;;0.80;;
2474;SDS011;1248;48.694;10.160;2023-04-24T06:22:10;0.90;;;0.80;;
2474;SDS011;1248;48.694;10.160;2023-04-24T06:24:37;0.90;;;0.80;;
2474;SDS011;1248;48.694;10.160;2023-04-24T06:27:04;0.83;;;0.80;;
2474;SDS011;1248;48.694;10.160;2023-04-24T06:29:31;0.90;;;0.80;;
2474;SDS011;1248;48.694;10.160;2023-04-24T06:32:00;0.80;;;0.80;;
2474;SDS011;1248;48.694;10.160;2023-04-24T06:34:27;0.90;;;0.80;;
2474;SDS011;1248;48.694;10.160;2023-04-24T06:36:56;0.80;;;0.73;;
2474;SDS011;1248;48.694;10.160;2023-04-24T06:39:23;1.00;;;0.90;;
2474;SDS011;1248;48.694;10.160;2023-04-24T06:41:50;0.90;;;0.80;;
2474;SDS011;1248;48.694;10.160;2023-04-24T06:44:17;0.90;;;0.80;;
2474;SDS011;1248;48.694;10.160;2023-04-24T06:46:44;1.00;;;0.90;;
2474;SDS011;1248;48.694;10.160;2023-04-24T06:49:12;2.27;;;2.17;;
2474;SDS011;1248;48.694;10.160;2023-04-24T06:51:41;0.90;;;0.80;;
2474;SDS011;1248;48.694;10.160;2023-04-24T06:54:08;0.90;;;0.80;;
2474;SDS011;1248;48.694;10.160;2023-04-24T06:56:35;0.93;;;0.83;;
2474;SDS011;1248;48.694;10.160;2023-04-24T06:59:03;0.80;;;0.80;;
2474;SDS011;1248;48.694;10.160;2023-04-24T07:01:30;0.83;;;0.80;;
2474;SDS011;1248;48.694;10.160;2023-04-24T07:03:57;1.00;;;0.90;;
2474;SDS011;1248;48.694;10.160;2023-04-24T07:06:26;0.90;;;0.80;;
2474;SDS011;1248;48.694;10.160;2023-04-24T07:08:53;0.80;;;0.73;;
2474;SDS011;1248;48.694;10.160;2023-04-24T07:11:21;0.90;;;0.80;;
2474;SDS011;1248;48.694;10.160;2023-04-24T07:13:48;4.00;;;2.20;;
2474;SDS011;1248;48.694;10.160;2023-04-24T07:16:15;0.90;;;0.80;;
2474;SDS011;1248;48.694;10.160;2023-04-24T07:18:42;0.90;;;0.80;;
2474;SDS011;1248;48.694;10.160;2023-04-24T07:21:09;0.90;;;0.80;;
2474;SDS011;1248;48.694;10.160;2023-04-24T07:23:38;1.15;;;1.05;;
2474;SDS011;1248;48.694;10.160;2023-04-24T07:26:06;0.90;;;0.80;;
2474;SDS011;1248;48.694;10.160;2023-04-24T07:28:33;0.90;;;0.70;;
2474;SDS011;1248;48.694;10.160;2023-04-24T07:31:00;0.90;;;0.80;;
2474;SDS011;1248;48.694;10.160;2023-04-24T07:33:27;0.90;;;0.70;;
2474;SDS011;1248;48.694;10.160;2023-04-24T07:35:54;0.90;;;0.70;;
2474;SDS011;1248;48.694;10.160;2023-04-24T07:38:22;0.90;;;0.80;;
2474;SDS011;1248;48.694;10.160;2023-04-24T07:40:52;0.90;;;0.80;;
2474;SDS011;1248;48.694;10.160;2023-04-24T07:43:20;0.90;;;0.80;;
2474;SDS011;1248;48.694;10.160;2023-04-24T07:45:47;0.90;;;0.73;;
2474;SDS011;1248;48.694;10.160;2023-04-24T07:48:14;0.90;;;0.80;;
2474;SDS011;1248;48.694;10.160;2023-04-24T07:50:41;0.80;;;0.70;;
2474;SDS011;1248;48.694;10.160;2023-04-24T07:53:09;0.80;;;0.70;;
2474;SDS011;1248;48.694;10.160;2023-04-24T07:55:36;0.90;;;0.80;;
2474;SDS011;1248;48.694;10.160;2023-04-24T07:58:04;0.90;;;0.80;;
2474;SDS011;1248;48.694;10.160;2023-04-24T08:00:31;0.82;;;0.70;;
2474;SDS011;1248;48.694;10.160;2023-04-24T08:02:58;0.90;;;0.70;;
2474;SDS011;1248;48.694;10.160;2023-04-24T08:05:25;0.90;;;0.80;;
2474;SDS011;1248;48.694;10.160;2023-04-24T08:07:54;0.80;;;0.70;;
2474;SDS011;1248;48.694;10.160;2023-04-24T08:10:21;0.90;;;0.70;;
2474;SDS011;1248;48.694;10.160;2023-04-24T08:12:48;0.90;;;0.70;;
2474;SDS011;1248;48.694;10.160;2023-04-24T08:15:17;0.90;;;0.70;;
2474;SDS011;1248;48.694;10.160;2023-04-24T08:17:44;0.80;;;0.70;;
2474;SDS011;1248;48.694;10.160;2023-04-24T08:20:11;0.80;;;0.70;;
2474;SDS011;1248;48.694;10.160;2023-04-24T08:22:39;0.90;;;0.70;;
2474;SDS011;1248;48.694;10.160;2023-04-24T08:25:07;0.80;;;0.70;;
2474;SDS011;1248;48.694;10.160;2023-04-24T08:27:35;0.80;;;0.70;;
2474;SDS011;1248;48.694;10.160;2023-04-24T08:30:04;0.90;;;0.70;;
2474;SDS011;1248;48.694;10.160;2023-04-24T08:32:34;0.80;;;0.70;;
2474;SDS011;1248;48.694;10.160;2023-04-24T08:35:01;2.45;;;2.25;;
2474;SDS011;1248;48.694;10.160;2023-04-24T08:37:28;2.77;;;2.43;;
2474;SDS011;1248;48.694;10.160;2023-04-24T08:39:55;2.80;;;2.60;;
2474;SDS011;1248;48.694;10.160;2023-04-24T08:42:22;4.97;;;2.60;;
2474;SDS011;1248;48.694;10.160;2023-04-24T08:44:49;2.40;;;2.20;;
2474;SDS011;1248;48.694;10.160;2023-04-24T08:47:16;3.33;;;2.03;;
2474;SDS011;1248;48.694;10.160;2023-04-24T08:49:46;2.60;;;2.37;;
2474;SDS011;1248;48.694;10.160;2023-04-24T08:52:14;2.10;;;1.90;;
2474;SDS011;1248;48.694;10.160;2023-04-24T08:54:42;2.80;;;2.00;;
2474;SDS011;1248;48.694;10.160;2023-04-24T08:57:11;2.00;;;1.80;;
2474;SDS011;1248;48.694;10.160;2023-04-24T08:59:38;3.03;;;1.87;;
2474;SDS011;1248;48.694;10.160;2023-04-24T09:02:05;2.30;;;2.10;;
2474;SDS011;1248;48.694;10.160;2023-04-24T09:04:33;2.60;;;2.40;;
2474;SDS011;1248;48.694;10.160;2023-04-24T09:07:02;2.25;;;2.05;;
2474;SDS011;1248;48.694;10.160;2023-04-24T09:09:30;2.22;;;1.85;;
2474;SDS011;1248;48.694;10.160;2023-04-24T09:11:59;3.80;;;2.77;;
2474;SDS011;1248;48.694;10.160;2023-04-24T09:14:27;2.50;;;2.30;;
2474;SDS011;1248;48.694;10.160;2023-04-24T09:16:56;2.70;;;2.50;;
2474;SDS011;1248;48.694;10.160;2023-04-24T09:19:23;3.00;;;2.70;;
2474;SDS011;1248;48.694;10.160;2023-04-24T09:21:50;4.73;;;2.40;;
2474;SDS011;1248;48.694;10.160;2023-04-24T09:24:21;2.90;;;2.67;;
2474;SDS011;1248;48.694;10.160;2023-04-24T09:26:49;3.43;;;2.73;;
2474;SDS011;1248;48.694;10.160;2023-04-24T09:29:22;4.10;;;2.60;;
2474;SDS011;1248;48.694;10.160;2023-04-24T09:31:49;4.57;;;2.83;;
2474;SDS011;1248;48.694;10.160;2023-04-24T09:34:20;2.60;;;2.40;;
2474;SDS011;1248;48.694;10.160;2023-04-24T09:36:48;3.50;;;2.97;;
2474;SDS011;1248;48.694;10.160;2023-04-24T09:39:15;2.97;;;2.67;;
2474;SDS011;1248;48.694;10.160;2023-04-24T09:41:45;5.40;;;3.00;;
2474;SDS011;1248;48.694;10.160;2023-04-24T09:44:12;4.03;;;2.43;;
2474;SDS011;1248;48.694;10.160;2023-04-24T09:46:41;2.03;;;1.93;;
2474;SDS011;1248;48.694;10.160;2023-04-24T09:49:08;3.42;;;2.50;;
2474;SDS011;1248;48.694;10.160;2023-04-24T09:51:38;7.10;;;3.07;;
2474;SDS011;1248;48.694;10.160;2023-04-24T09:54:11;2.90;;;2.70;;
2474;SDS011;1248;48.694;10.160;2023-04-24T09:56:41;2.60;;;2.40;;
2474;SDS011;1248;48.694;10.160;2023-04-24T09:59:11;2.37;;;2.03;;
2474;SDS011;1248;48.694;10.160;2023-04-24T10:01:38;2.90;;;2.30;;
2474;SDS011;1248;48.694;10.160;2023-04-24T10:04:14;2.23;;;2.03;;
2474;SDS011;1248;48.694;10.160;2023-04-24T10:06:43;3.20;;;2.47;;
2474;SDS011;1248;48.694;10.160;2023-04-24T10:09:10;2.50;;;2.30;;
2474;SDS011;1248;48.694;10.160;2023-04-24T10:11:41;3.97;;;2.20;;
2474;SDS011;1248;48.694;10.160;2023-04-24T10:14:10;2.83;;;2.00;;
2474;SDS011;1248;48.694;10.160;2023-04-24T10:16:39;2.13;;;1.93;;
2474;SDS011;1248;48.694;10.160;2023-04-24T10:19:06;3.10;;;2.30;;
2474;SDS011;1248;48.694;10.160;2023-04-24T10:21:34;9.60;;;1.80;;
2474;SDS011;1248;48.694;10.160;2023-04-24T10:24:01;8.93;;;2.90;;
2474;SDS011;1248;48.694;10.160;2023-04-24T10:26:30;3.00;;;1.57;;
2474;SDS011;1248;48.694;10.160;2023-04-24T10:28:58;2.60;;;1.98;;
2474;SDS011;1248;48.694;10.160;2023-04-24T10:31:27;2.30;;;1.67;;
2474;SDS011;1248;48.694;10.160;2023-04-24T10:33:58;2.10;;;1.90;;
2474;SDS011;1248;48.694;10.160;2023-04-24T10:36:25;4.73;;;1.90;;
2474;SDS011;1248;48.694;10.160;2023-04-24T10:38:54;2.73;;;2.50;;
2474;SDS011;1248;48.694;10.160;2023-04-24T10:41:22;3.57;;;1.83;;
2474;SDS011;1248;48.694;10.160;2023-04-24T10:44:03;3.47;;;1.77;;
2474;SDS011;1248;48.694;10.160;2023-04-24T10:46:33;3.80;;;2.90;;
2474;SDS011;1248;48.694;10.160;2023-04-24T10:49:00;2.80;;;1.80;;
2474;SDS011;1248;48.694;10.160;2023-04-24T10:51:44;1.97;;;1.80;;
2474;SDS011;1248;48.694;10.160;2023-04-24T10:54:22;1.73;;;1.50;;
2474;SDS011;1248;48.694;10.160;2023-04-24T10:56:51;1.37;;;1.27;;
2474;SDS011;1248;48.694;10.160;2023-04-24T10:59:24;3.53;;;1.60;;
2474;SDS011;1248;48.694;10.160;2023-04-24T11:01:54;1.97;;;1.30;;
2474;SDS011;1248;48.694;10.160;2023-04-24T11:04:31;2.13;;;1.60;;
2474;SDS011;1248;48.694;10.160;2023-04-24T11:06:58;2.40;;;1.73;;
2474;SDS011;1248;48.694;10.160;2023-04-24T11:09:26;1.53;;;1.40;;
2474;SDS011;1248;48.694;10.160;2023-04-24T11:12:02;1.60;;;1.43;;
2474;SDS011;1248;48.694;10.160;2023-04-24T11:17:31;3.43;;;1.40;;
2474;SDS011;1248;48.694;10.160;2023-04-24T11:20:02;4.22;;;1.48;;
2474;SDS011;1248;48.694;10.160;2023-04-24T11:22:30;2.17;;;1.30;;
2474;SDS011;1248;48.694;10.160;2023-04-24T11:24:59;1.97;;;1.47;;
2474;SDS011;1248;48.694;10.160;2023-04-24T11:27:29;2.60;;;1.60;;
2474;SDS011;1248;48.694;10.160;2023-04-24T11:29:59;1.80;;;1.60;;
2474;SDS011;1248;48.694;10.160;2023-04-24T11:32:27;1.57;;;1.40;;
2474;SDS011;1248;48.694;10.160;2023-04-24T11:34:56;2.40;;;1.20;;
2474;SDS011;1248;48.694;10.160;2023-04-24T11:37:26;3.03;;;1.47;;
2474;SDS011;1248;48.694;10.160;2023-04-24T11:39:54;1.57;;;1.47;;
2474;SDS011;1248;48.694;10.160;2023-04-24T11:42:22;3.80;;;1.70;;
2474;SDS011;1248;48.694;10.160;2023-04-24T11:44:49;1.30;;;1.20;;
2474;SDS011;1248;48.694;10.160;2023-04-24T11:47:18;1.73;;;1.40;;
2474;SDS011;1248;48.694;10.160;2023-04-24T11:49:45;2.10;;;1.50;;
2474;SDS011;1248;48.694;10.160;2023-04-24T11:52:16;3.13;;;1.43;;
2474;SDS011;1248;48.694;10.160;2023-04-24T11:54:47;2.50;;;1.30;;
2474;SDS011;1248;48.694;10.160;2023-04-24T11:57:15;3.65;;;2.47;;
2474;SDS011;1248;48.694;10.160;2023-04-24T11:59:42;1.80;;;1.70;;
2474;SDS011;1248;48.694;10.160;2023-04-24T12:02:19;1.33;;;1.23;;
2474;SDS011;1248;48.694;10.160;2023-04-24T12:04:46;1.97;;;1.20;;
2474;SDS011;1248;48.694;10.160;2023-04-24T12:07:13;1.20;;;0.93;;
2474;SDS011;1248;48.694;10.160;2023-04-24T12:09:42;1.38;;;1.17;;
2474;SDS011;1248;48.694;10.160;2023-04-24T12:12:11;1.20;;;1.10;;
2474;SDS011;1248;48.694;10.160;2023-04-24T12:14:42;1.67;;;1.30;;
2474;SDS011;1248;48.694;10.160;2023-04-24T12:17:10;1.63;;;1.23;;
2474;SDS011;1248;48.694;10.160;2023-04-24T12:19:37;1.30;;;1.20;;
2474;SDS011;1248;48.694;10.160;2023-04-24T12:22:05;1.10;;;0.93;;
2474;SDS011;1248;48.694;10.160;2023-04-24T12:24:32;1.43;;;1.30;;
2474;SDS011;1248;48.694;10.160;2023-04-24T12:27:01;1.93;;;1.37;;
2474;SDS011;1248;48.694;10.160;2023-04-24T12:29:28;1.50;;;1.13;;
2474;SDS011;1248;48.694;10.160;2023-04-24T12:31:55;1.70;;;1.00;;
2474;SDS011;1248;48.694;10.160;2023-04-24T12:34:22;1.53;;;1.00;;
2474;SDS011;1248;48.694;10.160;2023-04-24T12:36:50;1.30;;;1.10;;
2474;SDS011;1248;48.694;10.160;2023-04-24T12:39:17;1.30;;;1.10;;
2474;SDS011;1248;48.694;10.160;2023-04-24T12:41:54;2.87;;;1.50;;
2474;SDS011;1248;48.694;10.160;2023-04-24T12:44:30;1.50;;;1.23;;
2474;SDS011;1248;48.694;10.160;2023-04-24T12:47:00;1.50;;;1.40;;
2474;SDS011;1248;48.694;10.160;2023-04-24T12:49:27;1.40;;;1.30;;
2474;SDS011;1248;48.694;10.160;2023-04-24T12:51:54;1.60;;;1.50;;
2474;SDS011;1248;48.694;10.160;2023-04-24T12:54:21;2.27;;;1.67;;
2474;SDS011;1248;48.694;10.160;2023-04-24T12:56:48;1.47;;;1.30;;
2474;SDS011;1248;48.694;10.160;2023-04-24T12:59:15;1.57;;;1.47;;
2474;SDS011;1248;48.694;10.160;2023-04-24T13:01:44;1.40;;;1.30;;
2474;SDS011;1248;48.694;10.160;2023-04-24T13:04:11;1.90;;;1.70;;
2474;SDS011;1248;48.694;10.160;2023-04-24T13:06:38;2.10;;;1.90;;
2474;SDS011;1248;48.694;10.160;2023-04-24T13:09:05;1.63;;;1.40;;
2474;SDS011;1248;48.694;10.160;2023-04-24T13:11:33;2.07;;;1.40;;
2474;SDS011;1248;48.694;10.160;2023-04-24T13:14:00;2.63;;;1.60;;
2474;SDS011;1248;48.694;10.160;2023-04-24T13:16:27;1.70;;;1.30;;
2474;SDS011;1248;48.694;10.160;2023-04-24T13:18:56;1.50;;;1.40;;
2474;SDS011;1248;48.694;10.160;2023-04-24T13:21:23;2.80;;;1.30;;
2474;SDS011;1248;48.694;10.160;2023-04-24T13:23:50;1.50;;;1.40;;
2474;SDS011;1248;48.694;10.160;2023-04-24T13:26:17;1.33;;;1.20;;
2474;SDS011;1248;48.694;10.160;2023-04-24T13:28:44;1.20;;;1.10;;
2474;SDS011;1248;48.694;10.160;2023-04-24T13:31:11;1.55;;;1.45;;
2474;SDS011;1248;48.694;10.160;2023-04-24T13:33:39;1.93;;;1.47;;
2474;SDS011;1248;48.694;10.160;2023-04-24T13:36:08;2.60;;;1.53;;
2474;SDS011;1248;48.694;10.160;2023-04-24T13:38:35;1.50;;;1.40;;
2474;SDS011;1248;48.694;10.160;2023-04-24T13:41:02;1.57;;;1.47;;
2474;SDS011;1248;48.694;10.160;2023-04-24T13:43:29;2.03;;;1.50;;
2474;SDS011;1248;48.694;10.160;2023-04-24T13:45:56;1.80;;;1.40;;
2474;SDS011;1248;48.694;10.160;2023-04-24T13:48:24;2.00;;;1.40;;
2474;SDS011;1248;48.694;10.160;2023-04-24T13:50:51;2.70;;;2.33;;
2474;SDS011;1248;48.694;10.160;2023-04-24T13:53:20;1.90;;;1.23;;
2474;SDS011;1248;48.694;10.160;2023-04-24T13:55:47;2.17;;;1.60;;
2474;SDS011;1248;48.694;10.160;2023-04-24T13:58:14;2.90;;;1.47;;
2474;SDS011;1248;48.694;10.160;2023-04-24T14:00:41;1.60;;;1.30;;
2474;SDS011;1248;48.694;10.160;2023-04-24T14:03:08;2.03;;;1.50;;
2474;SDS011;1248;48.694;10.160;2023-04-24T14:05:36;3.60;;;1.70;;
2474;SDS011;1248;48.694;10.160;2023-04-24T14:08:03;1.40;;;1.30;;
2474;SDS011;1248;48.694;10.160;2023-04-24T14:10:32;2.03;;;1.53;;
2474;SDS011;1248;48.694;10.160;2023-04-24T14:12:59;1.30;;;1.20;;
2474;SDS011;1248;48.694;10.160;2023-04-24T14:15:26;1.73;;;1.57;;
2474;SDS011;1248;48.694;10.160;2023-04-24T14:17:54;3.27;;;1.30;;
2474;SDS011;1248;48.694;10.160;2023-04-24T14:20:21;1.43;;;1.20;;
2474;SDS011;1248;48.694;10.160;2023-04-24T14:22:48;2.33;;;1.43;;
2474;SDS011;1248;48.694;10.160;2023-04-24T14:25:15;1.47;;;1.17;;
2474;SDS011;1248;48.694;10.160;2023-04-24T14:27:43;1.90;;;1.77;;
2474;SDS011;1248;48.694;10.160;2023-04-24T14:30:11;2.07;;;1.30;;
2474;SDS011;1248;48.694;10.160;2023-04-24T14:32:39;1.87;;;1.37;;
2474;SDS011;1248;48.694;10.160;2023-04-24T14:35:06;1.63;;;1.27;;
2474;SDS011;1248;48.694;10.160;2023-04-24T14:37:34;1.53;;;1.40;;
2474;SDS011;1248;48.694;10.160;2023-04-24T14:40:01;1.67;;;1.58;;
2474;SDS011;1248;48.694;10.160;2023-04-24T14:42:30;2.20;;;1.50;;
2474;SDS011;1248;48.694;10.160;2023-04-24T14:44:58;3.67;;;1.95;;
2474;SDS011;1248;48.694;10.160;2023-04-24T14:47:25;2.20;;;1.90;;
2474;SDS011;1248;48.694;10.160;2023-04-24T14:49:52;3.30;;;1.63;;
2474;SDS011;1248;48.694;10.160;2023-04-24T14:52:19;5.73;;;1.90;;
2474;SDS011;1248;48.694;10.160;2023-04-24T14:54:46;2.07;;;1.90;;
2474;SDS011;1248;48.694;10.160;2023-04-24T14:57:13;2.60;;;1.90;;
2474;SDS011;1248;48.694;10.160;2023-04-24T14:59:43;2.90;;;1.97;;
2474;SDS011;1248;48.694;10.160;2023-04-24T15:02:12;2.20;;;2.00;;
2474;SDS011;1248;48.694;10.160;2023-04-24T15:04:39;3.20;;;1.80;;
2474;SDS011;1248;48.694;10.160;2023-04-24T15:07:06;2.10;;;1.90;;